Time;durP1;ratioP1;P1;durP2;ratioP2;P2;SDS_P1;SDS_P2;PMS_P1;PMS_P2;Temp;Humidity;BMP_temperature;BMP_pressure;BME280_temperature;BME280_humidity;BME280_pressure;Samples;Min_cycle;Max_cycle;Signal;HPM_P1;HPM_P2
2023/03/08 04:00:56;;;;;;;15.67;12.57;;;3.80;99.90;;;;;;5650480;23;20329;-83
2023/03/08 04:03:21;;;;;;;12.07;10.40;;;3.60;99.90;;;;;;4951718;28;20182;-83
2023/03/08 04:05:47;;;;;;;11.80;9.93;;;3.50;99.90;;;;;;4939811;29;20187;-83
2023/03/08 04:08:13;;;;;;;15.10;11.20;;;3.40;99.90;;;;;;4937595;29;20548;-83
2023/03/08 04:10:39;;;;;;;18.13;11.43;;;3.30;99.90;;;;;;4933572;29;20210;-82
2023/03/08 04:13:05;;;;;;;12.73;11.53;;;3.20;99.90;;;;;;4917882;29;20207;-82
2023/03/08 04:15:31;;;;;;;13.93;12.40;;;3.10;99.90;;;;;;4917693;29;20183;-82
2023/03/08 04:17:57;;;;;;;13.60;12.20;;;3.00;99.90;;;;;;4917676;29;20717;-82
2023/03/08 04:20:23;;;;;;;14.73;12.93;;;3.00;99.90;;;;;;4918855;29;20214;-83
2023/03/08 04:22:49;;;;;;;16.40;14.80;;;3.00;99.90;;;;;;4919321;29;20344;-82
2023/03/08 04:25:15;;;;;;;17.23;15.40;;;3.00;99.90;;;;;;4918482;29;20667;-82
2023/03/08 04:27:41;;;;;;;17.70;16.23;;;2.90;99.90;;;;;;4918822;29;20195;-83
2023/03/08 04:30:08;;;;;;;19.73;18.13;;;2.90;99.90;;;;;;4917469;29;20186;-83
2023/03/08 04:32:34;;;;;;;20.33;17.87;;;2.90;99.90;;;;;;4917907;29;20305;-83
2023/03/08 04:34:59;;;;;;;20.37;18.27;;;3.00;99.90;;;;;;4919791;29;20219;-83
2023/03/08 04:37:25;;;;;;;18.80;17.20;;;3.00;99.90;;;;;;4917943;29;20191;-83
2023/03/08 04:39:51;;;;;;;19.57;17.77;;;2.90;99.90;;;;;;4918955;29;20175;-83
2023/03/08 04:42:17;;;;;;;20.73;18.60;;;3.00;99.90;;;;;;4918894;29;20298;-84
2023/03/08 04:44:42;;;;;;;18.90;17.10;;;3.00;99.90;;;;;;4917736;29;20485;-84
2023/03/08 04:47:08;;;;;;;17.77;16.13;;;3.00;99.90;;;;;;4917978;29;20182;-84
2023/03/08 04:49:34;;;;;;;18.50;16.80;;;3.10;99.90;;;;;;4917102;29;20541;-84
2023/03/08 04:52:00;;;;;;;19.20;17.30;;;3.00;99.90;;;;;;4920284;29;20207;-83
2023/03/08 04:54:26;;;;;;;18.30;16.60;;;3.10;99.90;;;;;;4919279;29;20187;-83
2023/03/08 04:56:52;;;;;;;18.83;17.17;;;3.00;99.90;;;;;;4919118;29;20193;-83
2023/03/08 04:59:17;;;;;;;18.33;16.73;;;3.00;99.90;;;;;;4921968;29;20293;-83
2023/03/08 05:01:43;;;;;;;17.87;16.17;;;3.20;99.90;;;;;;4922450;29;20222;-83
2023/03/08 05:04:12;;;;;;;19.40;17.43;;;3.20;99.90;;;;;;4922102;29;20182;-83
2023/03/08 05:06:38;;;;;;;18.33;16.63;;;3.30;99.90;;;;;;4925149;29;20195;-80
2023/03/08 05:09:04;;;;;;;19.70;18.00;;;3.20;99.90;;;;;;4938561;29;20255;-82
2023/03/08 05:11:30;;;;;;;18.33;16.73;;;3.20;99.90;;;;;;4927386;29;20687;-83
2023/03/08 05:13:58;;;;;;;20.07;18.20;;;3.30;99.90;;;;;;4924331;29;20239;-83
2023/03/08 05:16:25;;;;;;;19.20;17.43;;;3.30;99.90;;;;;;4926205;29;20220;-84
2023/03/08 05:18:50;;;;;;;19.23;17.33;;;3.30;99.90;;;;;;4923983;29;20302;-84
2023/03/08 05:21:19;;;;;;;19.47;17.70;;;3.30;99.90;;;;;;4908138;29;20733;-75
2023/03/08 05:23:45;;;;;;;18.90;17.00;;;3.30;99.90;;;;;;4899120;29;20184;-76
2023/03/08 05:26:14;;;;;;;19.70;17.80;;;3.30;99.90;;;;;;4916837;29;20183;-76
2023/03/08 05:28:42;;;;;;;20.33;18.27;;;3.40;99.90;;;;;;4917505;29;20186;-77
2023/03/08 05:31:14;;;;;;;21.00;18.90;;;3.40;99.90;;;;;;4917498;29;20718;-76
2023/03/08 05:33:41;;;;;;;20.90;18.97;;;3.50;99.90;;;;;;4916557;29;20183;-76
2023/03/08 05:36:07;;;;;;;21.23;19.03;;;3.60;99.90;;;;;;4917240;29;20193;-75
2023/03/08 05:38:34;;;;;;;24.40;20.57;;;3.60;99.90;;;;;;4919031;29;20214;-77
2023/03/08 05:41:01;;;;;;;20.53;18.20;;;3.70;99.90;;;;;;4918298;29;20198;-77
2023/03/08 05:43:26;;;;;;;21.10;19.00;;;3.70;99.90;;;;;;4918153;29;20187;-77
2023/03/08 05:46:01;;;;;;;19.53;17.83;;;3.70;99.90;;;;;;4917834;29;20198;-76
2023/03/08 05:48:26;;;;;;;18.73;16.83;;;3.70;99.90;;;;;;4917373;29;20190;-76
2023/03/08 05:50:53;;;;;;;17.63;15.87;;;3.70;99.90;;;;;;4915491;29;20626;-77
2023/03/08 05:53:19;;;;;;;19.20;17.30;;;3.70;99.90;;;;;;4916192;29;20186;-77
2023/03/08 05:55:45;;;;;;;18.93;17.03;;;3.70;99.90;;;;;;4916175;29;20190;-75
2023/03/08 05:58:11;;;;;;;16.73;15.17;;;3.70;99.90;;;;;;4915683;29;20233;-76
2023/03/08 06:00:37;;;;;;;18.70;16.80;;;3.70;99.90;;;;;;4916651;29;20302;-76
2023/03/08 06:03:02;;;;;;;17.17;15.17;;;3.70;99.90;;;;;;4916187;29;20219;-76
2023/03/08 06:05:29;;;;;;;21.23;19.13;;;3.70;99.90;;;;;;4916582;29;20187;-75
2023/03/08 06:07:55;;;;;;;19.67;17.60;;;3.70;99.90;;;;;;4915694;29;20187;-76
2023/03/08 06:10:21;;;;;;;18.93;17.23;;;3.70;99.90;;;;;;4916483;29;20198;-75
2023/03/08 06:12:47;;;;;;;20.10;18.10;;;3.70;99.90;;;;;;4915442;29;20214;-76
2023/03/08 06:15:12;;;;;;;18.77;17.00;;;3.70;99.90;;;;;;4916050;29;20214;-75
2023/03/08 06:17:39;;;;;;;17.80;16.10;;;3.80;99.90;;;;;;4915479;29;20215;-75
2023/03/08 06:20:05;;;;;;;18.00;15.80;;;3.80;99.90;;;;;;4914945;29;20218;-76
2023/03/08 06:22:31;;;;;;;17.43;15.73;;;3.80;99.90;;;;;;4915480;29;20207;-76
2023/03/08 06:24:57;;;;;;;17.93;14.83;;;3.80;99.90;;;;;;4916732;29;20186;-75
2023/03/08 06:27:23;;;;;;;17.00;15.07;;;3.90;99.90;;;;;;4915184;29;20198;-76
2023/03/08 06:29:49;;;;;;;17.80;13.80;;;3.90;99.90;;;;;;4916696;29;20335;-76
2023/03/08 06:32:16;;;;;;;16.97;14.70;;;3.90;99.90;;;;;;4915366;29;20207;-76
2023/03/08 06:34:42;;;;;;;16.10;13.20;;;4.00;99.90;;;;;;4916012;29;20648;-69
2023/03/08 06:37:07;;;;;;;15.50;13.60;;;4.00;99.90;;;;;;4914964;29;20211;-69
2023/03/08 06:39:33;;;;;;;20.07;13.67;;;4.00;99.90;;;;;;4915719;29;20214;-69
2023/03/08 06:42:02;;;;;;;19.87;14.07;;;4.10;99.90;;;;;;4914706;29;20199;-69
2023/03/08 06:44:29;;;;;;;13.97;12.40;;;4.10;99.90;;;;;;4915139;29;20639;-75
2023/03/08 06:46:56;;;;;;;16.07;12.97;;;4.10;99.90;;;;;;4915810;29;20193;-75
2023/03/08 06:49:22;;;;;;;12.47;11.17;;;4.20;99.90;;;;;;4914175;29;20610;-75
2023/03/08 06:51:48;;;;;;;19.37;12.63;;;4.10;99.90;;;;;;4914293;29;20215;-76
2023/03/08 06:54:16;;;;;;;14.77;12.07;;;4.20;99.90;;;;;;4914955;29;20211;-75
2023/03/08 06:56:46;;;;;;;13.53;11.33;;;4.20;99.90;;;;;;4912569;29;20243;-75
2023/03/08 06:59:15;;;;;;;13.33;10.57;;;4.20;99.90;;;;;;4913627;29;20210;-74
2023/03/08 07:01:40;;;;;;;10.63;9.07;;;4.30;99.90;;;;;;4915298;29;20292;-75
2023/03/08 07:04:06;;;;;;;16.03;11.53;;;4.30;99.90;;;;;;4915184;29;20270;-74
2023/03/08 07:06:32;;;;;;;12.87;11.57;;;4.30;99.90;;;;;;4916982;29;20195;-74
2023/03/08 07:08:58;;;;;;;12.80;11.03;;;4.30;99.90;;;;;;4915490;29;20563;-74
2023/03/08 07:11:25;;;;;;;17.30;11.57;;;4.40;99.90;;;;;;4916227;29;20211;-76
2023/03/08 07:13:51;;;;;;;14.50;11.43;;;4.50;99.90;;;;;;4915335;29;20539;-76
2023/03/08 07:16:17;;;;;;;12.60;10.80;;;4.60;99.90;;;;;;4916094;29;20187;-74
2023/03/08 07:18:43;;;;;;;13.33;10.33;;;4.60;99.90;;;;;;4916019;29;20561;-75
2023/03/08 07:21:09;;;;;;;18.03;11.63;;;4.70;99.90;;;;;;4915150;29;20203;-75
2023/03/08 07:23:35;;;;;;;10.87;9.77;;;4.70;99.90;;;;;;4915993;29;20540;-75
2023/03/08 07:26:07;;;;;;;20.60;10.83;;;4.70;99.90;;;;;;4915646;29;20187;-75
2023/03/08 07:28:32;;;;;;;16.67;11.97;;;4.70;99.90;;;;;;4914147;29;20215;-74
2023/03/08 07:30:58;;;;;;;16.40;11.83;;;4.70;99.90;;;;;;4914258;29;20211;-75
2023/03/08 07:33:24;;;;;;;18.60;13.90;;;4.80;99.90;;;;;;4914400;29;20195;-75
2023/03/08 07:35:50;;;;;;;15.33;12.70;;;4.90;99.90;;;;;;4914129;29;20186;-74
2023/03/08 07:38:16;;;;;;;15.17;13.53;;;5.00;99.90;;;;;;4915311;29;20226;-75
2023/03/08 07:40:42;;;;;;;17.97;16.07;;;5.10;99.90;;;;;;4914076;29;20294;-75
2023/03/08 07:43:08;;;;;;;17.57;15.77;;;5.20;99.90;;;;;;4914389;29;20554;-75
2023/03/08 07:45:33;;;;;;;19.60;16.80;;;5.40;99.90;;;;;;4914225;29;20186;-75
2023/03/08 07:47:59;;;;;;;17.10;15.30;;;5.40;99.90;;;;;;4915451;29;20199;-75
2023/03/08 07:50:25;;;;;;;20.30;15.53;;;5.40;99.90;;;;;;4914995;29;20178;-75
2023/03/08 07:52:51;;;;;;;17.63;15.80;;;5.40;99.90;;;;;;4915497;29;20186;-75
2023/03/08 07:55:17;;;;;;;17.27;14.20;;;5.40;99.90;;;;;;4915285;29;20545;-75
2023/03/08 07:57:42;;;;;;;15.30;13.17;;;5.40;99.90;;;;;;4914094;29;20222;-74
2023/03/08 08:00:09;;;;;;;15.30;11.60;;;5.30;99.90;;;;;;4913940;29;20198;-75
2023/03/08 08:02:36;;;;;;;17.70;12.93;;;5.20;99.90;;;;;;4898425;29;20214;-76
2023/03/08 08:05:03;;;;;;;22.33;14.83;;;5.10;99.90;;;;;;4914367;29;20671;-75
2023/03/08 08:07:29;;;;;;;18.77;16.23;;;5.00;99.90;;;;;;4916018;29;20608;-76
2023/03/08 08:09:55;;;;;;;21.87;19.73;;;5.10;99.90;;;;;;4913784;29;20632;-76
2023/03/08 08:12:22;;;;;;;25.40;22.90;;;5.00;99.90;;;;;;4915072;29;20226;-76
2023/03/08 08:14:51;;;;;;;24.47;22.13;;;5.00;99.90;;;;;;4914074;29;20206;-75
2023/03/08 08:17:19;;;;;;;26.43;24.13;;;5.00;99.90;;;;;;4914423;29;20533;-75
2023/03/08 08:19:44;;;;;;;25.13;19.43;;;5.00;99.90;;;;;;4915172;29;20362;-75
2023/03/08 08:22:10;;;;;;;18.97;16.43;;;5.00;99.90;;;;;;4913796;29;20727;-75
2023/03/08 08:24:36;;;;;;;18.10;14.27;;;4.90;99.90;;;;;;4916165;29;20226;-75
2023/03/08 08:27:02;;;;;;;20.33;16.20;;;5.00;99.90;;;;;;4917819;29;20199;-76
2023/03/08 08:29:28;;;;;;;22.93;15.33;;;5.00;99.90;;;;;;4916866;29;20183;-75
2023/03/08 08:31:55;;;;;;;21.40;17.27;;;5.20;99.90;;;;;;4917803;29;20315;-76
2023/03/08 08:34:20;;;;;;;19.20;16.20;;;5.30;99.90;;;;;;4926377;29;20566;-75
2023/03/08 08:36:46;;;;;;;20.93;17.50;;;5.40;99.90;;;;;;4922887;29;20187;-75
2023/03/08 08:39:12;;;;;;;22.57;17.80;;;5.30;99.90;;;;;;4918757;29;20242;-75
2023/03/08 08:41:38;;;;;;;21.57;19.60;;;5.40;99.90;;;;;;4917835;29;20206;-74
2023/03/08 08:44:03;;;;;;;21.60;17.97;;;5.40;99.90;;;;;;4917515;29;20221;-75
2023/03/08 08:46:32;;;;;;;21.97;16.20;;;5.40;99.90;;;;;;4917510;29;20226;-76
2023/03/08 08:48:59;;;;;;;21.17;17.03;;;5.30;99.90;;;;;;4917128;29;20239;-76
2023/03/08 08:51:24;;;;;;;22.80;20.33;;;5.20;99.90;;;;;;4918487;29;20697;-76
2023/03/08 08:53:51;;;;;;;23.90;15.50;;;5.30;99.90;;;;;;4918410;29;20183;-76
2023/03/08 08:56:19;;;;;;;22.70;16.57;;;5.20;99.90;;;;;;4917512;29;20187;-76
2023/03/08 08:58:47;;;;;;;26.07;17.30;;;5.20;99.90;;;;;;4920097;29;20293;-76
2023/03/08 09:01:17;;;;;;;28.30;18.73;;;5.20;99.90;;;;;;4919448;29;20210;-76
2023/03/08 09:03:44;;;;;;;28.70;18.10;;;5.30;99.90;;;;;;4925545;29;20655;-77
2023/03/08 09:06:11;;;;;;;26.93;17.93;;;5.40;99.90;;;;;;4923496;29;20191;-76
2023/03/08 09:08:37;;;;;;;22.87;16.53;;;5.50;99.90;;;;;;4923421;29;20187;-76
2023/03/08 09:11:05;;;;;;;21.33;16.27;;;5.60;99.90;;;;;;4920736;29;20215;-76
2023/03/08 09:13:31;;;;;;;19.47;15.83;;;5.60;99.90;;;;;;4919782;29;20694;-76
2023/03/08 09:15:57;;;;;;;19.43;14.93;;;5.50;99.90;;;;;;4918035;29;20195;-76
2023/03/08 09:18:23;;;;;;;22.47;16.20;;;5.40;99.90;;;;;;4917501;29;20588;-75
2023/03/08 09:20:48;;;;;;;22.33;15.33;;;5.40;99.90;;;;;;4917076;29;20206;-76
2023/03/08 09:23:14;;;;;;;21.20;15.30;;;5.40;99.90;;;;;;4918168;29;20269;-76
2023/03/08 09:25:40;;;;;;;22.03;15.47;;;5.40;99.90;;;;;;4917938;29;20636;-76
2023/03/08 09:28:06;;;;;;;23.17;16.53;;;5.50;99.90;;;;;;4918050;29;20190;-76
2023/03/08 09:30:31;;;;;;;21.63;15.33;;;5.60;99.90;;;;;;4917561;29;20207;-76
2023/03/08 09:32:58;;;;;;;19.73;15.03;;;5.60;99.90;;;;;;4918154;29;20234;-76
2023/03/08 09:35:24;;;;;;;23.93;15.17;;;5.60;99.90;;;;;;4917726;29;20643;-76
2023/03/08 09:37:50;;;;;;;21.57;15.70;;;5.70;99.90;;;;;;4916593;29;20187;-76
2023/03/08 09:40:26;;;;;;;25.40;16.93;;;5.70;99.90;;;;;;4916118;29;20183;-76
2023/03/08 09:42:54;;;;;;;22.37;16.47;;;5.80;99.90;;;;;;4917243;29;20244;-76
2023/03/08 09:45:25;;;;;;;19.80;15.47;;;5.70;99.90;;;;;;4916251;29;20211;-76
2023/03/08 09:48:05;;;;;;;20.90;15.10;;;5.70;99.90;;;;;;4916530;29;20183;-76
2023/03/08 09:50:37;;;;;;;22.47;15.37;;;5.70;99.90;;;;;;4917153;29;20655;-76
2023/03/08 09:53:19;;;;;;;25.20;15.97;;;5.60;99.90;;;;;;4916443;29;20278;-76
2023/03/08 09:56:36;;;;;;;22.47;15.07;;;5.60;99.90;;;;;;4917395;29;20187;-76
2023/03/08 09:59:10;;;;;;;18.77;15.23;;;5.60;99.90;;;;;;4843223;29;20533;-76
2023/03/08 10:01:53;;;;;;;24.07;17.30;;;5.60;99.90;;;;;;4843501;29;20293;-76
2023/03/08 10:04:34;;;;;;;21.70;17.20;;;5.80;99.90;;;;;;4896420;29;20608;-76
2023/03/08 10:07:07;;;;;;;20.43;17.13;;;5.80;99.90;;;;;;4917270;29;20815;-76
2023/03/08 10:09:46;;;;;;;24.40;18.37;;;5.90;99.90;;;;;;4916776;29;20201;-76
2023/03/08 10:12:22;;;;;;;23.47;17.53;;;5.90;99.90;;;;;;4915834;29;20207;-76
2023/03/08 10:14:58;;;;;;;22.90;17.57;;;6.00;99.90;;;;;;4935773;23;20206;-76
2023/03/08 10:17:52;;;;;;;22.50;17.67;;;6.10;99.90;;;;;;4897125;29;20786;-76
2023/03/08 10:20:23;;;;;;;21.77;16.20;;;6.20;99.90;;;;;;4897407;29;20258;-76
2023/03/08 10:22:58;;;;;;;26.87;16.70;;;6.30;99.90;;;;;;4896938;29;20555;-75
2023/03/08 10:25:29;;;;;;;22.00;15.70;;;6.50;99.90;;;;;;4897926;29;20214;-75
2023/03/08 10:27:57;;;;;;;21.27;16.70;;;6.60;99.90;;;;;;4898042;29;20191;-75
2023/03/08 10:30:32;;;;;;;22.33;18.93;;;6.80;99.90;;;;;;4897710;29;20184;-75
2023/03/08 10:33:01;;;;;;;21.60;17.30;;;6.90;99.90;;;;;;4897983;29;20199;-75
2023/03/08 10:35:36;;;;;;;22.70;17.43;;;7.10;99.90;;;;;;4897714;29;20204;-75
2023/03/08 10:38:04;;;;;;;18.13;15.47;;;7.20;99.90;;;;;;4896735;29;20215;-75
2023/03/08 10:40:30;;;;;;;19.77;16.70;;;7.30;99.90;;;;;;4896226;29;20191;-75
2023/03/08 10:43:04;;;;;;;23.77;19.07;;;7.30;99.90;;;;;;4896883;29;20184;-75
2023/03/08 10:45:30;;;;;;;21.87;17.10;;;7.20;99.90;;;;;;4896574;29;20211;-74
2023/03/08 10:48:01;;;;;;;21.03;18.77;;;7.20;99.90;;;;;;4896570;29;20231;-75
2023/03/08 10:50:36;;;;;;;21.40;18.23;;;7.30;99.90;;;;;;4897349;29;20747;-75
2023/03/08 10:53:23;;;;;;;22.80;19.17;;;7.30;99.90;;;;;;4896836;29;20194;-75
2023/03/08 10:55:50;;;;;;;23.17;18.90;;;7.30;99.90;;;;;;4896624;29;20219;-75
2023/03/08 10:58:30;;;;;;;21.93;18.10;;;7.40;99.90;;;;;;4897296;29;20586;-74
2023/03/08 11:00:59;;;;;;;24.27;21.97;;;7.60;99.90;;;;;;4896740;29;20192;-75
2023/03/08 11:03:25;;;;;;;27.90;25.23;;;7.70;99.90;;;;;;4898095;29;20274;-75
2023/03/08 11:06:12;;;;;;;25.57;23.40;;;7.90;99.90;;;;;;4897944;29;20286;-75
2023/03/08 11:08:50;;;;;;;25.83;23.37;;;7.90;99.90;;;;;;4896560;29;20195;-75
2023/03/08 11:11:16;;;;;;;24.77;22.87;;;8.10;99.90;;;;;;4896300;29;20252;-75
2023/03/08 11:13:45;;;;;;;23.60;21.60;;;8.20;99.90;;;;;;4897373;29;20281;-75
2023/03/08 11:16:29;;;;;;;17.87;16.20;;;8.50;99.90;;;;;;4897121;29;20255;-75
2023/03/08 11:18:55;;;;;;;15.47;12.37;;;8.70;99.90;;;;;;4896860;29;20211;-75
2023/03/08 11:21:46;;;;;;;12.60;11.33;;;8.90;99.90;;;;;;4897070;29;20180;-75
2023/03/08 11:24:38;;;;;;;16.33;14.63;;;9.20;99.90;;;;;;4897028;29;20188;-75
2023/03/08 11:27:47;;;;;;;15.93;14.67;;;9.40;99.90;;;;;;4896964;29;20575;-76
2023/03/08 11:30:54;;;;;;;12.80;11.67;;;9.70;99.90;;;;;;4838754;29;20190;-74
2023/03/08 11:33:47;;;;;;;14.00;9.03;;;9.80;99.90;;;;;;4886211;29;20631;-74
2023/03/08 11:36:29;;;;;;;10.57;9.67;;;9.90;99.90;;;;;;4920747;29;20271;-73
2023/03/08 11:39:13;;;;;;;10.57;9.93;;;10.00;99.90;;;;;;4897498;29;20219;-74
2023/03/08 11:41:54;;;;;;;7.97;7.47;;;10.00;99.90;;;;;;4895865;29;20626;-74
2023/03/08 11:44:26;;;;;;;9.50;8.87;;;10.00;99.90;;;;;;4896800;29;20223;-75
2023/03/08 11:47:50;;;;;;;8.97;8.33;;;10.00;99.90;;;;;;4896388;29;20204;-74
2023/03/08 11:50:34;;;;;;;8.63;8.13;;;10.00;99.90;;;;;;4856719;29;20743;-75
2023/03/08 11:52:59;;;;;;;8.10;7.60;;;10.10;99.90;;;;;;4896710;29;20192;-75
2023/03/08 11:55:40;;;;;;;8.70;8.00;;;10.10;99.90;;;;;;4896623;29;20560;-75
2023/03/08 11:58:27;;;;;;;8.80;8.07;;;10.20;99.90;;;;;;4896555;29;20359;-75
2023/03/08 12:00:59;;;;;;;7.83;7.20;;;10.40;99.90;;;;;;4896580;29;20187;-75
2023/03/08 12:03:39;;;;;;;6.70;6.40;;;10.50;99.90;;;;;;4896485;29;20630;-75
2023/03/08 12:06:26;;;;;;;6.30;6.00;;;10.60;99.90;;;;;;4896166;29;20237;-75
2023/03/08 12:09:03;;;;;;;5.83;5.40;;;10.60;99.90;;;;;;4895995;29;20188;-75
2023/03/08 12:11:32;;;;;;;5.90;5.70;;;10.70;99.90;;;;;;4896425;29;20667;-75
2023/03/08 12:14:17;;;;;;;5.93;5.73;;;10.80;99.90;;;;;;4896382;29;20616;-75
2023/03/08 12:16:51;;;;;;;5.83;5.53;;;10.90;99.90;;;;;;4894939;29;20219;-75
2023/03/08 12:19:44;;;;;;;5.17;4.87;;;10.90;99.90;;;;;;4896394;29;20579;-74
2023/03/08 12:22:21;;;;;;;5.30;5.10;;;11.00;99.90;;;;;;4899648;29;20184;-74
2023/03/08 12:24:54;;;;;;;5.03;4.77;;;11.10;99.90;;;;;;4899894;29;20191;-75
2023/03/08 12:27:27;;;;;;;5.30;5.10;;;11.20;99.90;;;;;;4896454;29;20195;-75
2023/03/08 12:30:18;;;;;;;5.30;5.10;;;11.20;99.90;;;;;;4896018;29;20653;-75
2023/03/08 12:32:44;;;;;;;5.50;5.30;;;11.30;99.90;;;;;;4896505;29;20215;-75
2023/03/08 12:35:13;;;;;;;4.47;4.37;;;11.40;99.90;;;;;;4896493;29;20573;-75
2023/03/08 12:37:39;;;;;;;4.77;4.67;;;11.40;99.90;;;;;;4896474;29;20640;-75
2023/03/08 12:40:29;;;;;;;5.17;4.97;;;11.50;99.90;;;;;;4894565;29;20207;-75
2023/03/08 12:43:18;;;;;;;6.67;6.47;;;11.60;99.90;;;;;;4894930;29;20191;-74
2023/03/08 12:46:00;;;;;;;6.13;5.67;;;11.60;99.90;;;;;;4895890;29;20208;-75
2023/03/08 12:48:47;;;;;;;6.03;5.67;;;11.70;99.90;;;;;;4894631;29;20246;-75
2023/03/08 12:51:15;;;;;;;5.83;5.63;;;11.70;99.90;;;;;;4895973;29;20234;-75
2023/03/08 12:53:49;;;;;;;5.83;5.57;;;11.70;99.90;;;;;;4896004;29;20546;-75
2023/03/08 12:56:49;;;;;;;5.77;5.57;;;11.70;99.90;;;;;;4895914;29;20207;-75
2023/03/08 12:59:15;;;;;;;5.77;5.47;;;11.70;99.90;;;;;;4895409;29;20223;-75
2023/03/08 13:01:43;;;;;;;6.07;5.77;;;11.70;99.90;;;;;;4894906;29;20659;-75
2023/03/08 13:04:26;;;;;;;6.23;6.03;;;11.70;99.90;;;;;;4895850;29;20238;-75
2023/03/08 13:06:52;;;;;;;6.17;5.87;;;11.70;99.90;;;;;;4895777;29;20210;-75
2023/03/08 13:09:33;;;;;;;6.60;6.33;;;11.80;99.90;;;;;;4894342;29;20558;-75
2023/03/08 13:12:17;;;;;;;8.10;7.80;;;11.90;99.90;;;;;;4896086;29;20219;-75
2023/03/08 13:15:07;;;;;;;7.70;7.40;;;12.00;99.90;;;;;;4895566;29;20243;-75
2023/03/08 13:17:38;;;;;;;8.00;7.70;;;12.00;99.90;;;;;;4894791;29;20187;-75
2023/03/08 13:20:27;;;;;;;5.70;5.50;;;12.00;99.90;;;;;;4898813;29;20222;-75
2023/03/08 13:23:14;;;;;;;5.83;5.53;;;12.10;99.90;;;;;;4899334;29;20184;-75
2023/03/08 13:25:49;;;;;;;5.60;5.20;;;12.10;99.90;;;;;;4899254;29;20302;-75
2023/03/08 13:28:27;;;;;;;4.80;4.40;;;12.10;99.90;;;;;;4898073;29;20194;-75
2023/03/08 13:31:11;;;;;;;5.33;5.13;;;12.10;99.90;;;;;;4897908;29;20327;-75
2023/03/08 13:33:41;;;;;;;5.37;5.17;;;12.00;99.90;;;;;;4899618;29;20191;-75
2023/03/08 13:36:18;;;;;;;5.70;5.50;;;12.00;99.90;;;;;;4921618;29;20277;-75
2023/03/08 13:38:52;;;;;;;4.40;4.30;;;12.10;99.90;;;;;;4904407;29;20226;-75
2023/03/08 13:41:18;;;;;;;4.60;4.20;;;12.20;99.90;;;;;;4898912;29;20183;-75
2023/03/08 13:43:44;;;;;;;3.73;3.50;;;12.20;99.90;;;;;;4899080;29;20647;-75
2023/03/08 13:46:15;;;;;;;3.70;3.50;;;12.30;99.90;;;;;;4898691;29;20208;-75
2023/03/08 13:48:43;;;;;;;3.43;3.33;;;12.30;99.90;;;;;;4897560;29;20211;-75
2023/03/08 13:51:16;;;;;;;4.00;3.90;;;12.40;99.90;;;;;;4898605;29;20184;-75
2023/03/08 13:53:43;;;;;;;4.30;3.33;;;12.30;99.90;;;;;;4897719;29;20232;-75
2023/03/08 13:56:27;;;;;;;4.17;4.07;;;12.30;99.90;;;;;;4899479;29;20755;-75
2023/03/08 13:58:56;;;;;;;5.33;5.03;;;12.40;99.90;;;;;;4897674;29;20310;-75
2023/03/08 14:01:24;;;;;;;6.13;5.77;;;12.50;99.90;;;;;;4898746;29;20241;-75
2023/03/08 14:03:53;;;;;;;5.57;5.27;;;12.50;99.90;;;;;;4898692;29;20180;-75
2023/03/08 14:06:27;;;;;;;6.70;5.97;;;12.50;99.90;;;;;;4898498;29;20735;-75
2023/03/08 14:08:57;;;;;;;6.23;5.93;;;12.40;99.90;;;;;;4898184;29;20630;-75
2023/03/08 14:11:29;;;;;;;6.70;6.40;;;12.40;99.90;;;;;;4898641;29;20301;-75
2023/03/08 14:13:57;;;;;;;6.93;6.73;;;12.50;99.90;;;;;;4898875;29;20187;-75
2023/03/08 14:16:36;;;;;;;7.40;7.10;;;12.60;99.90;;;;;;4897067;29;20692;-75
2023/03/08 14:19:24;;;;;;;9.37;8.97;;;12.70;99.90;;;;;;4898251;29;20598;-75
2023/03/08 14:21:59;;;;;;;8.77;8.37;;;12.80;99.90;;;;;;4898593;29;20180;-75
2023/03/08 14:24:30;;;;;;;9.77;9.00;;;12.80;99.90;;;;;;4897496;29;20185;-75
2023/03/08 14:27:12;;;;;;;14.10;13.10;;;12.70;99.90;;;;;;4898538;29;20655;-75
2023/03/08 14:29:38;;;;;;;9.20;8.77;;;12.80;99.90;;;;;;4898289;29;20298;-76
2023/03/08 14:32:08;;;;;;;9.97;9.30;;;12.80;99.90;;;;;;4898217;29;20739;-74
2023/03/08 14:34:39;;;;;;;9.87;9.37;;;12.70;99.90;;;;;;4897518;29;20203;-75
2023/03/08 14:37:15;;;;;;;11.00;10.30;;;12.70;99.90;;;;;;4898047;29;20188;-75
2023/03/08 14:39:45;;;;;;;9.53;8.90;;;12.70;99.90;;;;;;4897546;29;20620;-75
2023/03/08 14:42:34;;;;;;;9.37;8.97;;;12.70;99.90;;;;;;4896790;29;20188;-75
2023/03/08 14:45:05;;;;;;;10.57;9.97;;;12.60;99.90;;;;;;4897441;29;20200;-75
2023/03/08 14:47:33;;;;;;;9.73;9.33;;;12.60;99.90;;;;;;4897778;29;20184;-76
2023/03/08 14:50:04;;;;;;;9.20;8.90;;;12.70;99.90;;;;;;4897321;29;20184;-75
2023/03/08 14:52:34;;;;;;;8.60;8.20;;;12.70;99.90;;;;;;4897845;29;20184;-75
2023/03/08 14:55:01;;;;;;;8.67;8.37;;;12.70;99.90;;;;;;4896234;29;20208;-75
2023/03/08 14:57:29;;;;;;;8.90;8.60;;;12.80;99.90;;;;;;4897365;29;20564;-75
2023/03/08 15:00:06;;;;;;;9.20;8.90;;;12.90;99.90;;;;;;4897159;29;20215;-75
2023/03/08 15:02:32;;;;;;;9.73;9.20;;;13.00;99.90;;;;;;4896535;29;20195;-75
2023/03/08 15:04:59;;;;;;;9.20;8.70;;;13.10;99.90;;;;;;4897411;29;20199;-75
2023/03/08 15:07:31;;;;;;;10.70;10.20;;;13.10;99.90;;;;;;4897580;29;20222;-75
2023/03/08 15:09:59;;;;;;;8.43;8.13;;;13.10;99.90;;;;;;4895815;29;20194;-76
2023/03/08 15:12:25;;;;;;;10.00;9.40;;;13.10;99.90;;;;;;4896267;29;20183;-75
2023/03/08 15:14:50;;;;;;;12.03;11.30;;;13.10;99.90;;;;;;4897217;29;20191;-75
2023/03/08 15:17:16;;;;;;;10.93;10.40;;;13.10;99.90;;;;;;4897383;29;20683;-75
2023/03/08 15:19:42;;;;;;;13.00;12.40;;;13.10;99.90;;;;;;4896827;29;20216;-76
2023/03/08 15:22:11;;;;;;;12.93;12.07;;;13.10;99.90;;;;;;4897276;29;20192;-76
2023/03/08 15:24:38;;;;;;;11.27;10.77;;;13.10;99.90;;;;;;4897040;29;20226;-76
2023/03/08 15:27:04;;;;;;;11.97;11.47;;;13.20;99.90;;;;;;4897134;29;20523;-76
2023/03/08 15:29:33;;;;;;;11.50;10.90;;;13.30;99.90;;;;;;4895548;29;20194;-75
2023/03/08 15:31:59;;;;;;;13.20;12.67;;;13.40;99.90;;;;;;4897125;29;20180;-76
2023/03/08 15:34:25;;;;;;;15.40;14.70;;;13.40;99.90;;;;;;4896367;29;20222;-76
2023/03/08 15:36:52;;;;;;;16.53;15.53;;;13.50;99.90;;;;;;4913394;29;20284;-75
2023/03/08 15:39:18;;;;;;;18.97;17.97;;;13.60;99.90;;;;;;4901747;29;20283;-75
2023/03/08 15:41:45;;;;;;;19.40;18.57;;;13.50;99.90;;;;;;4895523;29;20184;-75
2023/03/08 15:44:11;;;;;;;17.73;16.90;;;13.40;99.90;;;;;;4896902;29;20242;-76
2023/03/08 15:46:37;;;;;;;16.33;15.57;;;13.40;99.90;;;;;;4896583;29;20211;-75
2023/03/08 15:49:04;;;;;;;12.20;11.70;;;13.30;99.90;;;;;;4896233;29;20219;-76
2023/03/08 15:51:32;;;;;;;11.30;10.70;;;13.20;99.90;;;;;;4896794;29;20215;-76
2023/03/08 15:53:58;;;;;;;10.37;9.97;;;13.20;99.90;;;;;;4896881;29;20549;-76
2023/03/08 15:56:27;;;;;;;9.87;9.27;;;13.10;99.90;;;;;;4893703;29;20215;-76
2023/03/08 15:58:53;;;;;;;10.00;9.53;;;13.00;99.90;;;;;;4892256;29;20344;-76
2023/03/08 16:01:21;;;;;;;10.80;10.33;;;13.00;99.90;;;;;;4896272;29;20220;-76
2023/03/08 16:03:50;;;;;;;9.60;9.20;;;13.00;99.90;;;;;;4896308;29;20235;-76
2023/03/08 16:06:16;;;;;;;9.57;9.17;;;13.00;99.90;;;;;;4896170;29;20207;-77
2023/03/08 16:08:42;;;;;;;10.60;10.20;;;13.00;99.90;;;;;;4902332;29;20247;-75
2023/03/08 16:11:09;;;;;;;11.90;11.30;;;13.00;99.90;;;;;;4900926;29;20215;-76
2023/03/08 16:13:35;;;;;;;10.37;9.97;;;13.00;99.90;;;;;;4900720;29;20192;-76
2023/03/08 16:16:02;;;;;;;9.40;9.00;;;13.00;99.90;;;;;;4938340;23;20226;-76
2023/03/08 16:18:29;;;;;;;9.17;8.80;;;13.00;99.90;;;;;;4933551;29;20856;-76
2023/03/08 16:20:56;;;;;;;9.40;9.00;;;13.00;99.90;;;;;;4934141;29;20222;-76
2023/03/08 16:23:23;;;;;;;9.70;9.30;;;13.00;99.90;;;;;;4933256;29;20596;-77
2023/03/08 16:26:04;;;;;;;9.60;9.13;;;13.00;99.90;;;;;;4927029;29;20211;-77
2023/03/08 16:28:30;;;;;;;10.67;10.27;;;13.00;99.90;;;;;;4915361;29;20238;-76
2023/03/08 16:30:56;;;;;;;8.70;8.40;;;12.90;99.90;;;;;;4914207;29;20191;-77
2023/03/08 16:33:25;;;;;;;9.50;9.10;;;12.90;99.90;;;;;;4914066;29;20706;-78
2023/03/08 16:35:51;;;;;;;9.07;8.77;;;12.90;99.90;;;;;;4914406;29;20207;-77
2023/03/08 16:38:17;;;;;;;10.43;10.00;;;12.90;99.90;;;;;;4914354;29;20274;-79
2023/03/08 16:40:43;;;;;;;10.53;10.03;;;12.80;99.90;;;;;;4914760;29;20179;-76
2023/03/08 16:43:10;;;;;;;8.93;8.63;;;12.80;99.90;;;;;;4914798;29;20194;-76
2023/03/08 16:45:36;;;;;;;4.60;4.27;;;12.80;99.90;;;;;;4914540;29;20206;-77
2023/03/08 16:48:03;;;;;;;6.00;5.60;;;12.60;99.90;;;;;;4914210;29;20197;-78
2023/03/08 16:50:29;;;;;;;7.40;7.10;;;12.50;99.90;;;;;;4913801;29;20191;-77
2023/03/08 16:52:57;;;;;;;4.83;4.63;;;12.40;99.90;;;;;;4914656;29;20741;-77
2023/03/08 16:55:26;;;;;;;4.20;4.00;;;12.40;99.90;;;;;;4917344;29;20213;-76